createdAt,value
2018-04-08T00:00:35.441Z,51.60
2018-04-08T00:03:05.136Z,52.10
2018-04-08T00:05:34.934Z,52.10
2018-04-08T00:08:04.598Z,52.80
2018-04-08T00:10:34.285Z,53.10
2018-04-08T00:13:04.731Z,53.20
2018-04-08T00:15:34.432Z,53.20
2018-04-08T00:18:04.109Z,52.20
2018-04-08T00:20:34.588Z,51.80
2018-04-08T00:23:04.273Z,51.80
2018-04-08T00:25:33.983Z,51.90
2018-04-08T00:28:04.415Z,52.20
2018-04-08T00:30:34.120Z,52.10
2018-04-08T00:33:03.812Z,52.50
2018-04-08T00:35:34.272Z,53.00
2018-04-08T00:38:03.945Z,52.90
2018-04-08T00:40:34.464Z,52.90
2018-04-08T00:43:04.912Z,53.10
2018-04-08T00:45:34.654Z,53.00
2018-04-08T00:48:05.267Z,53.50
2018-04-08T00:50:34.962Z,53.50
2018-04-08T00:53:04.416Z,53.60
2018-04-08T00:55:34.120Z,53.70
2018-04-08T00:58:03.801Z,53.90
2018-04-08T01:00:33.593Z,54.40
2018-04-08T01:03:03.276Z,54.40
2018-04-08T01:05:32.739Z,54.60
2018-04-08T01:08:02.423Z,54.70
2018-04-08T01:10:31.788Z,54.80
2018-04-08T01:13:01.494Z,55.00
2018-04-08T01:15:31.363Z,55.20
2018-04-08T01:18:00.804Z,55.40
2018-04-08T01:20:30.499Z,56.00
2018-04-08T01:23:00.166Z,56.10
2018-04-08T01:25:29.864Z,56.30
2018-04-08T01:28:00.075Z,56.90
2018-04-08T01:30:29.528Z,56.90
2018-04-08T01:32:59.196Z,57.20
2018-04-08T01:35:29.660Z,56.90
2018-04-08T01:38:00.276Z,57.00
2018-04-08T01:40:29.634Z,57.00
2018-04-08T01:42:59.321Z,57.60
2018-04-08T01:45:29.776Z,58.30
2018-04-08T01:47:59.457Z,58.30
2018-04-08T01:50:29.149Z,58.20
2018-04-08T01:52:58.992Z,58.40
2018-04-08T01:55:28.684Z,58.80
2018-04-08T01:57:58.356Z,58.80
2018-04-08T02:00:28.056Z,58.70
2018-04-08T02:02:57.732Z,59.30
2018-04-08T02:05:27.476Z,60.10
2018-04-08T02:07:57.157Z,59.70
2018-04-08T02:10:26.872Z,60.10
2018-04-08T02:12:57.320Z,60.90
2018-04-08T02:15:27.783Z,61.10
2018-04-08T02:17:57.468Z,61.20
2018-04-08T02:20:27.165Z,61.80
2018-04-08T02:22:56.856Z,61.30
2018-04-08T02:25:27.328Z,61.60
2018-04-08T02:27:57.941Z,61.80
2018-04-08T02:30:27.649Z,61.80
2018-04-08T02:32:58.277Z,61.90
2018-04-08T02:35:27.988Z,61.80
2018-04-08T02:37:57.344Z,61.80
2018-04-08T02:40:27.044Z,62.80
2018-04-08T02:42:56.888Z,62.20
2018-04-08T02:45:26.604Z,62.30
2018-04-08T02:47:57.049Z,62.40
2018-04-08T02:50:26.758Z,62.40
2018-04-08T02:52:56.802Z,62.60
2018-04-08T02:55:26.269Z,63.20
2018-04-08T02:57:56.108Z,63.30
2018-04-08T03:00:25.843Z,64.50
2018-04-08T03:02:55.541Z,64.00
2018-04-08T03:05:25.256Z,64.40
2018-04-08T03:07:54.952Z,64.40
2018-04-08T03:10:24.329Z,63.80
2018-04-08T03:12:54.005Z,64.60
2018-04-08T03:15:23.703Z,64.30
2018-04-08T03:17:53.568Z,65.20
2018-04-08T03:20:23.283Z,64.20
2018-04-08T03:22:53.332Z,65.20
2018-04-08T03:25:23.020Z,65.10
2018-04-08T03:27:52.707Z,64.70
2018-04-08T03:30:22.392Z,65.00
2018-04-08T03:32:52.280Z,64.80
2018-04-08T03:35:21.948Z,65.30
2018-04-08T03:37:52.632Z,65.50
2018-04-08T03:40:23.297Z,65.50
2018-04-08T03:42:52.980Z,65.50
2018-04-08T03:45:23.897Z,66.30
2018-04-08T03:47:53.754Z,66.20
2018-04-08T03:50:23.437Z,66.60
2018-04-08T03:52:53.300Z,66.50
2018-04-08T03:55:22.984Z,66.60
2018-04-08T03:57:52.735Z,66.30
2018-04-08T04:00:22.296Z,66.20
2018-04-08T04:02:51.940Z,66.10
2018-04-08T04:05:21.409Z,66.40
2018-04-08T04:07:51.028Z,66.10
2018-04-08T04:10:20.468Z,66.50
2018-04-08T04:12:50.752Z,66.80
2018-04-08T04:15:20.197Z,66.90
2018-04-08T04:17:49.887Z,67.00
2018-04-08T04:20:30.896Z,67.20
2018-04-08T04:23:11.952Z,67.00
2018-04-08T04:28:42.708Z,68.00
2018-04-08T04:31:12.192Z,67.00
2018-04-08T04:33:41.905Z,67.20
2018-04-08T04:36:11.581Z,67.40
2018-04-08T04:38:41.286Z,67.30
2018-04-08T04:41:10.973Z,67.40
2018-04-08T04:43:40.675Z,67.80
2018-04-08T04:46:10.368Z,67.90
2018-04-08T04:48:40.077Z,68.00
2018-04-08T04:51:09.757Z,68.30
2018-04-08T04:53:39.468Z,68.10
2018-04-08T04:56:08.909Z,68.10
2018-04-08T04:58:38.620Z,68.20
2018-04-08T05:01:08.125Z,69.10
2018-04-08T05:03:37.613Z,69.00
2018-04-08T05:06:07.284Z,68.10
2018-04-08T05:08:36.998Z,68.30
2018-04-08T05:11:06.680Z,68.10
2018-04-08T05:13:36.402Z,68.10
2018-04-08T05:16:06.084Z,68.00
2018-04-08T05:18:36.561Z,68.10
2018-04-08T05:21:06.253Z,68.00
2018-04-08T05:23:35.952Z,67.90
2018-04-08T05:26:05.650Z,68.20
2018-04-08T05:28:36.117Z,68.40
2018-04-08T05:31:05.812Z,68.30
2018-04-08T05:33:35.517Z,68.90
2018-04-08T05:36:05.196Z,69.10
2018-04-08T05:38:35.678Z,69.70
2018-04-08T05:41:05.365Z,69.80
2018-04-08T05:43:35.051Z,69.60
2018-04-08T05:46:05.500Z,69.80
2018-04-08T05:48:35.216Z,69.80
2018-04-08T05:51:04.904Z,69.40
2018-04-08T05:53:34.628Z,69.30
2018-04-08T05:56:04.329Z,68.70
2018-04-08T05:58:34.041Z,68.80
2018-04-08T06:01:03.740Z,69.40
2018-04-08T06:03:33.468Z,69.10
2018-04-08T06:06:03.175Z,68.90
2018-04-08T06:08:32.871Z,69.40
2018-04-08T06:11:02.568Z,69.70
2018-04-08T06:13:33.032Z,68.30
2018-04-08T06:16:02.721Z,68.20
2018-04-08T06:18:32.429Z,67.20
2018-04-08T06:21:02.121Z,66.60
2018-04-08T06:23:32.608Z,66.50
2018-04-08T06:26:02.061Z,66.50
2018-04-08T06:28:31.800Z,65.40
2018-04-08T06:31:01.260Z,64.70
2018-04-08T06:33:31.881Z,62.50
2018-04-08T06:36:01.754Z,62.40
2018-04-08T06:38:32.020Z,62.40
2018-04-08T06:41:02.257Z,61.10
2018-04-08T06:43:31.742Z,61.10
2018-04-08T06:46:02.420Z,60.20
2018-04-08T06:48:31.572Z,60.30
2018-04-08T06:51:01.808Z,59.10
2018-04-08T06:53:31.528Z,59.00
2018-04-08T06:56:01.228Z,57.50
2018-04-08T06:58:30.952Z,57.40
2018-04-08T07:01:00.656Z,57.50
2018-04-08T07:03:30.155Z,57.20
2018-04-08T07:05:59.861Z,57.30
2018-04-08T07:08:29.584Z,56.90
2018-04-08T07:10:59.284Z,56.50
2018-04-08T07:13:29.000Z,56.30
2018-04-08T07:15:58.744Z,56.30
2018-04-08T07:18:29.204Z,57.10
2018-04-08T07:20:58.880Z,57.10
2018-04-08T07:23:28.368Z,56.40
2018-04-08T07:25:58.131Z,56.10
2018-04-08T07:28:27.911Z,55.90
2018-04-08T07:30:57.612Z,56.20
2018-04-08T07:33:29.212Z,56.00
2018-04-08T07:35:59.824Z,57.40
2018-04-08T07:38:29.572Z,57.30
2018-04-08T07:40:59.277Z,57.50
2018-04-08T07:43:29.004Z,58.40
2018-04-08T07:45:58.728Z,56.80
2018-04-08T07:48:28.452Z,57.20
2018-04-08T07:50:58.841Z,56.00
2018-04-08T07:53:28.515Z,56.20
2018-04-08T07:55:58.679Z,56.30
2018-04-08T07:58:28.676Z,57.20
2018-04-08T08:00:58.385Z,57.10
2018-04-08T08:03:28.156Z,57.10
2018-04-08T08:05:57.856Z,58.40
2018-04-08T08:08:27.581Z,58.30
2018-04-08T08:10:57.300Z,57.90
2018-04-08T08:13:27.773Z,58.00
2018-04-08T08:15:57.269Z,58.00
2018-04-08T08:18:27.523Z,56.90
2018-04-08T08:20:57.327Z,58.00
2018-04-08T08:23:27.037Z,57.70
2018-04-08T08:25:56.764Z,57.30
2018-04-08T08:28:26.513Z,57.20
2018-04-08T08:30:56.236Z,57.40
2018-04-08T08:33:26.025Z,56.70
2018-04-08T08:35:56.518Z,56.50
2018-04-08T08:38:25.992Z,56.50
2018-04-08T08:40:55.929Z,56.70
2018-04-08T08:43:25.684Z,55.30
2018-04-08T08:45:56.180Z,55.10
2018-04-08T08:48:27.392Z,56.20
2018-04-08T08:50:57.109Z,55.70
2018-04-08T08:53:26.808Z,54.10
2018-04-08T08:55:56.516Z,55.30
2018-04-08T08:58:25.884Z,54.70
2018-04-08T09:00:56.372Z,53.20
2018-04-08T09:03:26.076Z,53.10
2018-04-08T09:05:56.568Z,52.80
2018-04-08T09:08:26.029Z,52.70
2018-04-08T09:10:55.760Z,52.50
2018-04-08T09:13:26.292Z,53.10
2018-04-08T09:15:57.245Z,51.70
2018-04-08T09:18:27.480Z,51.80
2018-04-08T09:20:58.384Z,51.70
2018-04-08T09:23:34.257Z,51.00
2018-04-08T09:26:07.036Z,50.70
2018-04-08T09:28:36.752Z,50.70
2018-04-08T09:31:06.133Z,52.50
2018-04-08T09:33:36.373Z,50.30
2018-04-08T09:36:06.101Z,50.00
2018-04-08T09:38:35.840Z,49.70
2018-04-08T09:41:05.548Z,50.40
2018-04-08T09:43:35.252Z,49.70
2018-04-08T09:46:04.975Z,49.30
2018-04-08T09:48:34.677Z,49.20
2018-04-08T09:51:04.393Z,49.30
2018-04-08T09:53:34.096Z,48.70
2018-04-08T09:56:03.588Z,49.60
2018-04-08T09:58:33.057Z,47.70
2018-04-08T10:01:09.012Z,47.30
2018-04-08T10:03:46.021Z,47.10
2018-04-08T10:06:15.521Z,47.40
2018-04-08T10:08:45.256Z,46.10
2018-04-08T10:11:14.980Z,45.50
2018-04-08T10:13:44.689Z,45.50
2018-04-08T10:16:14.181Z,45.70
2018-04-08T10:18:43.665Z,44.40
2018-04-08T10:21:13.165Z,46.40
2018-04-08T10:23:42.649Z,45.80
2018-04-08T10:26:12.583Z,45.20
2018-04-08T10:28:42.296Z,45.50
2018-04-08T10:31:12.043Z,45.10
2018-04-08T10:33:41.916Z,46.50
2018-04-08T10:36:11.636Z,46.20
2018-04-08T10:38:41.341Z,45.30
2018-04-08T10:41:11.061Z,45.90
2018-04-08T10:43:40.773Z,47.30
2018-04-08T10:46:10.302Z,45.20
2018-04-08T10:48:39.992Z,44.20
2018-04-08T10:51:09.488Z,44.60
2018-04-08T10:53:39.196Z,45.30
2018-04-08T10:56:08.912Z,45.00
2018-04-08T10:58:38.632Z,45.60
2018-04-08T11:01:08.021Z,44.70
2018-04-08T11:03:37.933Z,45.00
2018-04-08T11:06:07.665Z,44.60
2018-04-08T11:08:37.369Z,44.00
2018-04-08T11:11:06.864Z,44.80
2018-04-08T11:13:36.572Z,44.50
2018-04-08T11:16:06.305Z,45.30
2018-04-08T11:18:36.003Z,43.20
2018-04-08T11:21:05.402Z,42.40
2018-04-08T11:23:35.109Z,42.90
2018-04-08T11:26:04.820Z,44.30
2018-04-08T11:28:34.516Z,43.70
2018-04-08T11:31:04.248Z,41.50
2018-04-08T11:33:33.965Z,42.40
2018-04-08T11:36:03.687Z,42.50
2018-04-08T11:38:33.368Z,41.80
2018-04-08T11:41:03.075Z,40.70
2018-04-08T11:43:32.750Z,39.90
2018-04-08T11:46:02.461Z,40.90
2018-04-08T11:48:32.141Z,39.40
2018-04-08T11:51:02.646Z,39.10
2018-04-08T11:53:32.329Z,39.60
2018-04-08T11:56:02.037Z,39.30
2018-04-08T11:58:31.521Z,39.60
2018-04-08T12:01:00.988Z,40.30
2018-04-08T12:03:31.244Z,42.10
2018-04-08T12:06:00.949Z,42.00
2018-04-08T12:08:30.880Z,42.10
2018-04-08T12:11:00.589Z,41.60
2018-04-08T12:13:30.091Z,42.30
2018-04-08T12:15:59.797Z,42.70
2018-04-08T12:18:29.285Z,41.70
2018-04-08T12:20:58.760Z,42.10
2018-04-08T12:23:29.016Z,42.80
2018-04-08T12:25:58.489Z,42.70
2018-04-08T12:28:28.741Z,40.80
2018-04-08T12:31:00.140Z,40.60
2018-04-08T12:33:29.622Z,41.60
2018-04-08T12:35:59.614Z,41.20
2018-04-08T12:38:29.381Z,41.40
2018-04-08T12:41:00.615Z,41.70
2018-04-08T12:43:31.161Z,43.50
2018-04-08T12:46:01.246Z,43.50
2018-04-08T12:48:31.871Z,43.50
2018-04-08T12:51:01.889Z,43.40
2018-04-08T12:53:31.561Z,41.20
2018-04-08T12:56:01.720Z,42.80
2018-04-08T12:58:32.428Z,44.40
2018-04-08T13:01:03.746Z,44.40
2018-04-08T13:03:37.129Z,43.20
2018-04-08T13:06:07.278Z,43.20
2018-04-08T13:08:44.175Z,43.00
2018-04-08T13:11:14.805Z,41.30
2018-04-08T13:13:44.883Z,39.70
2018-04-08T13:16:14.813Z,39.70
2018-04-08T13:18:44.431Z,40.50
2018-04-08T13:21:13.977Z,39.30
2018-04-08T13:23:43.349Z,39.60
2018-04-08T13:26:13.144Z,39.20
2018-04-08T13:28:43.033Z,39.80
2018-04-08T13:31:13.615Z,39.50
2018-04-08T13:33:43.575Z,39.30
2018-04-08T13:36:13.681Z,39.30
2018-04-08T13:38:44.348Z,38.80
2018-04-08T13:41:14.179Z,38.70
2018-04-08T13:43:49.186Z,39.30
2018-04-08T13:46:19.742Z,38.70
2018-04-08T13:48:56.552Z,38.60
2018-04-08T13:51:26.335Z,38.00
2018-04-08T13:53:56.522Z,37.40
2018-04-08T13:56:26.362Z,36.60
2018-04-08T13:58:56.172Z,36.20
2018-04-08T14:01:25.761Z,37.70
2018-04-08T14:03:55.792Z,38.60
2018-04-08T14:06:25.364Z,38.40
2018-04-08T14:08:55.734Z,39.10
2018-04-08T14:11:25.518Z,39.00
2018-04-08T14:13:56.619Z,40.40
2018-04-08T14:16:26.510Z,36.60
2018-04-08T14:18:56.352Z,36.80
2018-04-08T14:21:26.128Z,39.90
2018-04-08T14:23:55.960Z,37.20
2018-04-08T14:26:25.785Z,36.20
2018-04-08T14:28:55.632Z,37.10
2018-04-08T14:31:25.456Z,35.80
2018-04-08T14:33:55.302Z,39.50
2018-04-08T14:36:24.874Z,40.20
2018-04-08T14:38:54.708Z,39.40
2018-04-08T14:41:24.479Z,39.40
2018-04-08T14:43:55.204Z,39.30
2018-04-08T14:46:26.254Z,39.30
2018-04-08T14:48:57.050Z,40.00
2018-04-08T14:51:26.526Z,39.90
2018-04-08T14:53:56.257Z,39.60
2018-04-08T14:56:25.968Z,39.70
2018-04-08T14:58:56.047Z,40.60
2018-04-08T15:01:25.512Z,40.20
2018-04-08T15:03:55.230Z,39.90
2018-04-08T15:06:24.693Z,39.30
2018-04-08T15:08:54.176Z,40.20
2018-04-08T15:11:24.035Z,40.10
2018-04-08T15:13:54.208Z,39.00
2018-04-08T15:16:24.963Z,39.10
2018-04-08T15:18:54.705Z,38.90
2018-04-08T15:21:24.702Z,34.60
2018-04-08T15:23:54.939Z,34.10
2018-04-08T15:26:24.803Z,38.00
2018-04-08T15:28:54.541Z,36.80
2018-04-08T15:31:24.220Z,33.40
2018-04-08T15:33:54.684Z,37.10
2018-04-08T15:36:24.380Z,37.00
2018-04-08T15:38:54.079Z,38.30
2018-04-08T15:41:23.533Z,38.80
2018-04-08T15:43:53.209Z,37.00
2018-04-08T15:46:23.418Z,35.50
2018-04-08T15:48:53.913Z,38.70
2018-04-08T15:51:24.437Z,39.30
2018-04-08T15:53:55.081Z,39.70
2018-04-08T15:56:24.765Z,39.60
2018-04-08T15:58:54.473Z,38.90
2018-04-08T16:01:24.172Z,39.00
2018-04-08T16:03:53.887Z,39.50
2018-04-08T16:06:23.781Z,39.60
2018-04-08T16:08:53.480Z,39.30
2018-04-08T16:11:23.158Z,39.90
2018-04-08T16:13:53.638Z,39.90
2018-04-08T16:16:23.308Z,39.80
2018-04-08T16:18:53.004Z,39.70
2018-04-08T16:21:23.440Z,38.90
2018-04-08T16:23:53.132Z,38.80
2018-04-08T16:26:23.576Z,38.60
2018-04-08T16:28:53.282Z,38.50
2018-04-08T16:31:22.970Z,37.40
2018-04-08T16:33:52.453Z,38.80
2018-04-08T16:36:21.908Z,39.80
2018-04-08T16:38:51.625Z,39.60
2018-04-08T16:41:21.348Z,39.90
2018-04-08T16:43:51.212Z,40.80
2018-04-08T16:46:21.676Z,39.90
2018-04-08T16:48:51.356Z,39.80
2018-04-08T16:51:22.132Z,40.20
2018-04-08T16:53:51.981Z,40.20
2018-04-08T16:56:22.224Z,41.70
2018-04-08T16:58:51.696Z,41.00
2018-04-08T17:01:21.160Z,41.60
2018-04-08T17:03:50.893Z,41.40
2018-04-08T17:06:20.585Z,40.70
2018-04-08T17:08:50.265Z,40.30
2018-04-08T17:11:20.027Z,40.50
2018-04-08T17:13:49.713Z,41.20
2018-04-08T17:16:19.406Z,40.40
2018-04-08T17:18:49.090Z,41.00
2018-04-08T17:21:19.321Z,40.10
2018-04-08T17:23:49.541Z,40.30
2018-04-08T17:26:19.775Z,40.20
2018-04-08T17:28:49.239Z,40.20
2018-04-08T17:31:18.976Z,40.40
2018-04-08T17:33:48.433Z,40.80
2018-04-08T17:36:18.140Z,41.70
2018-04-08T17:38:47.832Z,41.50
2018-04-08T17:41:18.094Z,41.50
2018-04-08T17:43:47.560Z,41.00
2018-04-08T17:46:17.282Z,41.20
2018-04-08T17:48:46.996Z,41.50
2018-04-08T17:51:16.718Z,41.60
2018-04-08T17:53:46.432Z,41.80
2018-04-08T17:56:16.934Z,41.80
2018-04-08T17:58:46.633Z,41.80
2018-04-08T18:01:16.133Z,42.10
2018-04-08T18:03:45.872Z,42.20
2018-04-08T18:06:15.588Z,42.50
2018-04-08T18:08:45.264Z,42.80
2018-04-08T18:11:14.964Z,43.30
2018-04-08T18:13:44.713Z,42.70
2018-04-08T18:16:14.413Z,42.70
2018-04-08T18:18:44.079Z,43.50
2018-04-08T18:21:13.787Z,42.70
2018-04-08T18:23:44.224Z,42.30
2018-04-08T18:26:13.922Z,42.30
2018-04-08T18:28:44.362Z,43.00
2018-04-08T18:31:14.065Z,43.00
2018-04-08T18:33:43.769Z,43.10
2018-04-08T18:36:13.485Z,43.80
2018-04-08T18:38:43.160Z,44.20
2018-04-08T18:41:13.641Z,43.50
2018-04-08T18:43:43.445Z,43.40
2018-04-08T18:46:13.176Z,43.60
2018-04-08T18:48:43.097Z,44.20
2018-04-08T18:51:12.811Z,45.10
2018-04-08T18:53:42.670Z,45.20
2018-04-08T18:56:12.428Z,45.80
2018-04-08T18:58:42.120Z,46.30
2018-04-08T19:01:11.824Z,46.40
2018-04-08T19:03:41.501Z,46.40
2018-04-08T19:06:11.197Z,46.70
2018-04-08T19:08:40.883Z,46.80
2018-04-08T19:11:10.593Z,47.00
2018-04-08T19:13:40.293Z,47.20
2018-04-08T19:16:10.013Z,47.50
2018-04-08T19:18:39.698Z,47.80
2018-04-08T19:21:09.449Z,48.40
2018-04-08T19:23:39.057Z,48.60
2018-04-08T19:26:08.776Z,48.80
2018-04-08T19:28:39.236Z,49.60
2018-04-08T19:31:08.936Z,49.60
2018-04-08T19:33:38.625Z,49.80
2018-04-08T19:36:08.344Z,50.10
2018-04-08T19:38:38.041Z,50.20
2018-04-08T19:41:08.524Z,50.70
2018-04-08T19:43:38.245Z,50.60
2018-04-08T19:46:08.920Z,50.20
2018-04-08T19:48:38.618Z,50.20
2018-04-08T19:51:09.101Z,50.60
2018-04-08T19:53:38.797Z,50.60
2018-04-08T19:56:08.528Z,50.50
2018-04-08T19:58:38.407Z,50.00
2018-04-08T20:01:09.192Z,49.70
2018-04-08T20:03:39.842Z,50.00
2018-04-08T20:06:10.545Z,51.20
2018-04-08T20:08:40.257Z,50.60
2018-04-08T20:11:09.995Z,50.90
2018-04-08T20:13:39.745Z,50.90
2018-04-08T20:16:09.477Z,51.10
2018-04-08T20:18:39.200Z,51.30
2018-04-08T20:21:08.967Z,51.60
2018-04-08T20:23:39.468Z,52.00
2018-04-08T20:26:09.207Z,52.00
2018-04-08T20:28:38.957Z,52.20
2018-04-08T20:31:08.670Z,52.30
2018-04-08T20:33:38.415Z,52.40
2018-04-08T20:36:08.116Z,53.20
2018-04-08T20:38:37.856Z,52.60
2018-04-08T20:41:07.549Z,52.80
2018-04-08T20:43:37.267Z,52.80
2018-04-08T20:46:06.659Z,53.00
2018-04-08T20:48:36.377Z,52.90
2018-04-08T20:51:06.072Z,52.70
2018-04-08T20:53:35.790Z,52.20
2018-04-08T20:56:05.481Z,52.00
2018-04-08T20:58:35.965Z,52.00
2018-04-08T21:01:06.436Z,52.10
2018-04-08T21:03:36.920Z,52.10
2018-04-08T21:06:06.620Z,52.10
2018-04-08T21:08:36.337Z,52.00
2018-04-08T21:11:06.032Z,52.10
2018-04-08T21:13:35.740Z,51.90
2018-04-08T21:16:05.440Z,51.90
2018-04-08T21:18:35.153Z,52.00
2018-04-08T21:21:04.846Z,52.00
2018-04-08T21:23:34.946Z,52.30
2018-04-08T21:26:04.630Z,52.20
2018-04-08T21:28:34.367Z,52.50
2018-04-08T21:31:04.816Z,52.70
2018-04-08T21:33:34.533Z,52.60
2018-04-08T21:36:04.224Z,52.70
2018-04-08T21:38:34.704Z,52.90
2018-04-08T21:41:04.398Z,52.90
2018-04-08T21:43:33.876Z,52.80
2018-04-08T21:46:03.576Z,53.10
2018-04-08T21:48:33.300Z,52.80
2018-04-08T21:51:02.744Z,53.10
2018-04-08T21:53:32.232Z,53.10
2018-04-08T21:56:01.950Z,53.30
2018-04-08T21:58:31.673Z,53.40
2018-04-08T22:01:01.791Z,53.50
2018-04-08T22:03:31.796Z,53.30
2018-04-08T22:06:01.497Z,53.10
2018-04-08T22:08:31.209Z,52.90
2018-04-08T22:11:00.907Z,52.80
2018-04-08T22:13:30.629Z,52.80
2018-04-08T22:16:00.316Z,52.90
2018-04-08T22:18:30.041Z,52.70
2018-04-08T22:20:59.808Z,52.80
2018-04-08T22:23:29.527Z,52.60
2018-04-08T22:25:59.220Z,52.70
2018-04-08T22:28:29.710Z,52.70
2018-04-08T22:30:59.388Z,52.70
2018-04-08T22:33:29.105Z,52.50
2018-04-08T22:35:58.799Z,52.00
2018-04-08T22:38:28.492Z,52.10
2018-04-08T22:40:58.184Z,52.00
2018-04-08T22:43:28.664Z,51.80
2018-04-08T22:45:58.364Z,51.80
2018-04-08T22:48:28.072Z,52.00
2018-04-08T22:50:57.533Z,52.10
2018-04-08T22:53:27.981Z,52.40
2018-04-08T22:55:57.676Z,52.40
2018-04-08T22:58:28.161Z,52.10
2018-04-08T23:00:57.841Z,52.10
2018-04-08T23:03:27.556Z,51.80
2018-04-08T23:05:57.236Z,51.80
2018-04-08T23:08:27.713Z,51.70
2018-04-08T23:10:57.181Z,51.70
2018-04-08T23:13:26.893Z,51.80
2018-04-08T23:15:56.597Z,51.40
2018-04-08T23:18:26.307Z,51.60
2018-04-08T23:20:55.997Z,51.60
2018-04-08T23:23:26.481Z,51.20
2018-04-08T23:25:56.264Z,51.20
2018-04-08T23:28:25.984Z,51.80
2018-04-08T23:30:55.686Z,51.40
2018-04-08T23:33:25.395Z,52.50
2018-04-08T23:35:55.100Z,52.30
2018-04-08T23:38:24.834Z,52.10
2018-04-08T23:40:55.313Z,51.90
2018-04-08T23:43:26.015Z,52.10
2018-04-08T23:45:55.760Z,52.20
2018-04-08T23:48:26.303Z,52.50
2018-04-08T23:50:56.029Z,52.40
2018-04-08T23:53:25.913Z,53.70
2018-04-08T23:55:56.149Z,53.70
2018-04-08T23:58:25.835Z,53.60
